createdAt,value
2018-05-10T00:00:26.356Z,0.00
2018-05-10T00:01:26.358Z,0.00
2018-05-10T00:02:26.355Z,0.00
2018-05-10T00:03:26.355Z,0.00
2018-05-10T00:04:26.362Z,0.00
2018-05-10T00:05:26.363Z,0.00
2018-05-10T00:06:26.359Z,0.00
2018-05-10T00:07:26.361Z,0.00
2018-05-10T00:08:26.361Z,0.00
2018-05-10T00:09:26.362Z,0.00
2018-05-10T00:10:26.369Z,0.00
2018-05-10T00:11:26.377Z,0.00
2018-05-10T00:12:26.371Z,0.00
2018-05-10T00:13:26.374Z,0.00
2018-05-10T00:14:26.429Z,0.00
2018-05-10T00:15:26.370Z,0.00
2018-05-10T00:16:26.370Z,0.00
2018-05-10T00:17:26.369Z,0.00
2018-05-10T00:18:26.380Z,0.00
2018-05-10T00:19:26.377Z,0.00
2018-05-10T00:20:26.373Z,0.00
2018-05-10T00:21:26.373Z,0.00
2018-05-10T00:22:26.379Z,0.00
2018-05-10T00:23:26.381Z,0.00
2018-05-10T00:24:26.426Z,0.00
2018-05-10T00:25:26.380Z,0.00
2018-05-10T00:26:26.377Z,0.00
2018-05-10T00:27:26.377Z,0.00
2018-05-10T00:28:26.378Z,0.00
2018-05-10T00:29:26.381Z,0.00
2018-05-10T00:30:26.384Z,0.00
2018-05-10T00:31:26.385Z,0.00
2018-05-10T00:32:26.386Z,0.00
2018-05-10T00:33:26.386Z,0.00
2018-05-10T00:34:26.383Z,0.00
2018-05-10T00:35:26.388Z,0.00
2018-05-10T00:36:26.391Z,0.00
2018-05-10T00:37:26.390Z,0.00
2018-05-10T00:38:26.391Z,0.00
2018-05-10T00:39:26.387Z,0.00
2018-05-10T00:40:26.386Z,0.00
2018-05-10T00:41:26.386Z,0.00
2018-05-10T00:42:26.391Z,0.00
2018-05-10T00:43:26.393Z,0.00
2018-05-10T00:44:26.394Z,0.00
2018-05-10T00:45:26.394Z,0.00
2018-05-10T00:46:26.389Z,0.00
2018-05-10T00:47:26.391Z,0.00
2018-05-10T00:48:26.391Z,0.00
2018-05-10T00:49:26.390Z,0.00
2018-05-10T00:50:26.395Z,0.00
2018-05-10T00:51:26.396Z,0.00
2018-05-10T00:52:26.392Z,0.00
2018-05-10T00:53:26.392Z,0.00
2018-05-10T00:54:26.397Z,0.00
2018-05-10T00:55:26.399Z,0.00
2018-05-10T00:56:26.399Z,0.00
2018-05-10T00:57:26.400Z,0.00
2018-05-10T00:58:26.397Z,0.00
2018-05-10T00:59:26.394Z,0.00
2018-05-10T01:00:26.395Z,0.00
2018-05-10T01:01:26.395Z,0.00
2018-05-10T01:02:26.400Z,0.00
2018-05-10T01:03:26.404Z,0.00
2018-05-10T01:04:26.400Z,0.00
2018-05-10T01:05:26.400Z,0.00
2018-05-10T01:06:26.397Z,0.00
2018-05-10T01:07:26.396Z,0.00
2018-05-10T01:08:26.403Z,0.00
2018-05-10T01:09:26.400Z,0.00
2018-05-10T01:10:26.397Z,0.00
2018-05-10T01:11:26.398Z,0.00
2018-05-10T01:12:26.406Z,0.00
2018-05-10T01:13:26.408Z,0.00
2018-05-10T01:14:26.403Z,0.00
2018-05-10T01:15:26.404Z,0.00
2018-05-10T01:16:26.403Z,0.00
2018-05-10T01:17:26.403Z,0.00
2018-05-10T01:18:26.398Z,0.00
2018-05-10T01:19:26.399Z,0.00
2018-05-10T01:20:26.399Z,0.00
2018-05-10T01:21:26.398Z,0.00
2018-05-10T01:22:26.476Z,0.00
2018-05-10T01:23:26.403Z,0.00
2018-05-10T01:24:26.399Z,0.00
2018-05-10T01:25:26.400Z,0.00
2018-05-10T01:26:26.402Z,0.00
2018-05-10T01:27:26.404Z,0.00
2018-05-10T01:28:26.403Z,0.00
2018-05-10T01:29:26.403Z,0.00
2018-05-10T01:30:26.398Z,0.00
2018-05-10T01:31:26.398Z,0.00
2018-05-10T01:32:26.399Z,0.00
2018-05-10T01:33:26.397Z,0.00
2018-05-10T01:34:26.403Z,0.00
2018-05-10T01:35:26.403Z,0.00
2018-05-10T01:36:26.402Z,0.00
2018-05-10T01:37:26.401Z,0.00
2018-05-10T01:38:26.396Z,0.00
2018-05-10T01:39:26.399Z,0.00
2018-05-10T01:40:26.400Z,0.00
2018-05-10T01:41:26.399Z,0.00
2018-05-10T01:42:26.395Z,0.00
2018-05-10T01:43:26.395Z,0.00
2018-05-10T01:44:26.395Z,0.00
2018-05-10T01:45:26.395Z,0.00
2018-05-10T01:46:26.403Z,0.00
2018-05-10T01:47:26.399Z,0.00
2018-05-10T01:48:26.399Z,0.00
2018-05-10T01:49:26.398Z,0.00
2018-05-10T01:50:26.394Z,0.00
2018-05-10T01:51:26.393Z,0.00
2018-05-10T01:52:26.392Z,0.00
2018-05-10T01:53:26.391Z,0.00
2018-05-10T01:54:26.395Z,0.00
2018-05-10T01:55:26.395Z,0.00
2018-05-10T01:56:26.392Z,0.00
2018-05-10T01:57:26.390Z,0.00
2018-05-10T01:58:26.394Z,0.00
2018-05-10T01:59:26.393Z,0.00
2018-05-10T02:00:26.394Z,0.00
2018-05-10T02:01:26.394Z,0.00
2018-05-10T02:02:26.390Z,0.00
2018-05-10T02:03:26.388Z,0.00
2018-05-10T02:04:26.388Z,0.00
2018-05-10T02:05:26.387Z,0.00
2018-05-10T02:06:26.391Z,0.00
2018-05-10T02:07:26.391Z,0.00
2018-05-10T02:08:26.395Z,0.00
2018-05-10T02:09:26.393Z,0.00
2018-05-10T02:10:26.385Z,0.00
2018-05-10T02:11:26.384Z,0.00
2018-05-10T02:12:26.388Z,0.00
2018-05-10T02:13:26.388Z,0.00
2018-05-10T02:14:26.385Z,0.00
2018-05-10T02:15:26.382Z,0.00
2018-05-10T02:16:26.384Z,0.00
2018-05-10T02:17:26.382Z,0.00
2018-05-10T02:18:26.388Z,0.00
2018-05-10T02:19:26.385Z,0.00
2018-05-10T02:20:26.389Z,0.00
2018-05-10T02:21:26.384Z,0.00
2018-05-10T02:22:26.379Z,0.00
2018-05-10T02:23:26.378Z,0.00
2018-05-10T02:24:26.457Z,0.00
2018-05-10T02:25:26.377Z,0.00
2018-05-10T02:26:26.385Z,0.00
2018-05-10T02:27:26.380Z,0.00
2018-05-10T02:28:26.375Z,0.00
2018-05-10T02:29:26.378Z,0.00
2018-05-10T02:30:26.377Z,0.00
2018-05-10T02:31:26.378Z,0.00
2018-05-10T02:32:26.377Z,0.00
2018-05-10T02:33:26.376Z,0.00
2018-05-10T02:34:26.373Z,0.00
2018-05-10T02:35:26.369Z,0.00
2018-05-10T02:36:26.463Z,0.00
2018-05-10T02:37:26.373Z,0.00
2018-05-10T02:38:26.372Z,0.00
2018-05-10T02:39:26.371Z,0.00
2018-05-10T02:40:26.370Z,0.00
2018-05-10T02:41:26.368Z,0.00
2018-05-10T02:42:26.446Z,0.00
2018-05-10T02:43:26.364Z,0.00
2018-05-10T02:44:26.367Z,0.00
2018-05-10T02:45:26.369Z,0.00
2018-05-10T02:46:26.359Z,0.00
2018-05-10T02:47:26.357Z,0.00
2018-05-10T02:48:26.357Z,0.00
2018-05-10T02:49:26.356Z,0.00
2018-05-10T02:50:26.360Z,0.00
2018-05-10T02:51:26.364Z,0.00
2018-05-10T02:52:26.357Z,0.00
2018-05-10T02:53:26.355Z,0.00
2018-05-10T02:54:26.350Z,0.00
2018-05-10T02:55:26.349Z,0.00
2018-05-10T02:56:26.348Z,0.00
2018-05-10T02:57:26.347Z,0.00
2018-05-10T02:58:26.349Z,0.00
2018-05-10T02:59:26.350Z,0.00
2018-05-10T03:00:26.351Z,0.00
2018-05-10T03:01:26.342Z,0.00
2018-05-10T03:02:26.345Z,0.00
2018-05-10T03:03:26.344Z,0.00
2018-05-10T03:04:26.342Z,0.00
2018-05-10T03:05:26.340Z,0.00
2018-05-10T03:06:26.334Z,0.00
2018-05-10T03:07:26.333Z,0.00
2018-05-10T03:08:26.331Z,0.00
2018-05-10T03:09:26.330Z,0.00
2018-05-10T03:10:26.333Z,0.00
2018-05-10T03:11:26.332Z,0.00
2018-05-10T03:12:26.332Z,0.00
2018-05-10T03:13:26.329Z,0.00
2018-05-10T03:14:26.324Z,0.00
2018-05-10T03:15:26.322Z,0.00
2018-05-10T03:16:26.325Z,0.00
2018-05-10T03:17:26.323Z,0.00
2018-05-10T03:18:26.320Z,0.00
2018-05-10T03:19:26.315Z,0.00
2018-05-10T03:20:26.314Z,0.00
2018-05-10T03:21:26.311Z,0.00
2018-05-10T03:22:26.315Z,0.00
2018-05-10T03:23:26.314Z,0.00
2018-05-10T03:24:26.312Z,0.00
2018-05-10T03:25:26.310Z,0.00
2018-05-10T03:26:26.304Z,0.00
2018-05-10T03:27:26.304Z,0.00
2018-05-10T03:28:26.303Z,0.00
2018-05-10T03:29:26.308Z,0.00
2018-05-10T03:30:26.307Z,0.00
2018-05-10T03:31:26.302Z,0.00
2018-05-10T03:32:26.297Z,0.00
2018-05-10T03:33:26.295Z,0.00
2018-05-10T03:34:26.302Z,0.00
2018-05-10T03:35:26.300Z,0.00
2018-05-10T03:36:26.295Z,0.00
2018-05-10T03:37:26.293Z,0.00
2018-05-10T03:38:26.287Z,0.00
2018-05-10T03:39:26.286Z,0.00
2018-05-10T03:40:26.287Z,0.00
2018-05-10T03:41:26.283Z,0.00
2018-05-10T03:42:26.285Z,0.00
2018-05-10T03:43:26.285Z,0.00
2018-05-10T03:44:26.288Z,5.63
2018-05-10T03:45:26.286Z,5.63
2018-05-10T03:46:26.374Z,5.63
2018-05-10T03:47:26.276Z,5.63
2018-05-10T03:48:26.278Z,5.63
2018-05-10T03:49:26.278Z,5.63
2018-05-10T03:50:26.270Z,5.63
2018-05-10T03:51:26.269Z,5.63
2018-05-10T03:52:26.267Z,11.25
2018-05-10T03:53:26.265Z,11.25
2018-05-10T03:54:26.268Z,11.25
2018-05-10T03:55:26.268Z,11.25
2018-05-10T03:56:26.267Z,11.25
2018-05-10T03:57:26.264Z,16.88
2018-05-10T03:58:26.258Z,16.88
2018-05-10T03:59:26.257Z,16.88
2018-05-10T04:00:26.255Z,16.88
2018-05-10T04:01:26.252Z,22.50
2018-05-10T04:02:26.256Z,22.50
2018-05-10T04:03:26.340Z,22.50
2018-05-10T04:04:26.251Z,28.13
2018-05-10T04:05:26.246Z,28.13
2018-05-10T04:06:26.249Z,28.13
2018-05-10T04:07:26.249Z,33.75
2018-05-10T04:08:26.247Z,33.75
2018-05-10T04:09:26.245Z,33.75
2018-05-10T04:10:26.238Z,39.38
2018-05-10T04:11:26.237Z,39.38
2018-05-10T04:12:26.235Z,39.38
2018-05-10T04:13:26.233Z,45.00
2018-05-10T04:14:26.238Z,45.00
2018-05-10T04:15:26.237Z,45.00
2018-05-10T04:16:26.232Z,50.63
2018-05-10T04:17:26.230Z,50.63
2018-05-10T04:18:26.225Z,50.63
2018-05-10T04:19:26.224Z,56.25
2018-05-10T04:20:26.226Z,56.25
2018-05-10T04:21:26.224Z,61.88
2018-05-10T04:22:26.218Z,67.50
2018-05-10T04:23:26.216Z,67.50
2018-05-10T04:24:26.223Z,67.50
2018-05-10T04:25:26.217Z,73.13
2018-05-10T04:26:26.216Z,73.13
2018-05-10T04:27:26.213Z,73.13
2018-05-10T04:28:26.213Z,78.75
2018-05-10T04:29:26.211Z,78.75
2018-05-10T04:30:26.203Z,78.75
2018-05-10T04:31:26.201Z,78.75
2018-05-10T04:32:26.200Z,84.38
2018-05-10T04:33:26.197Z,84.38
2018-05-10T04:34:26.201Z,84.38
2018-05-10T04:35:26.198Z,84.38
2018-05-10T04:36:26.195Z,84.38
2018-05-10T04:37:26.190Z,84.38
2018-05-10T04:38:26.193Z,84.38
2018-05-10T04:39:26.191Z,84.38
2018-05-10T04:40:26.191Z,84.38
2018-05-10T04:41:26.197Z,84.38
2018-05-10T04:42:26.181Z,84.38
2018-05-10T04:43:26.179Z,84.38
2018-05-10T04:44:26.186Z,84.38
2018-05-10T04:45:26.175Z,84.38
2018-05-10T04:46:26.179Z,84.38
2018-05-10T04:47:26.177Z,84.38
2018-05-10T04:48:26.174Z,90.00
2018-05-10T04:49:26.172Z,90.00
2018-05-10T04:50:26.166Z,90.00
2018-05-10T04:51:26.164Z,90.00
2018-05-10T04:52:26.167Z,90.00
2018-05-10T04:53:26.164Z,90.00
2018-05-10T04:54:26.158Z,90.00
2018-05-10T04:55:26.156Z,95.63
2018-05-10T04:56:26.156Z,95.63
2018-05-10T04:57:26.153Z,95.63
2018-05-10T04:58:26.156Z,101.25
2018-05-10T04:59:26.155Z,101.25
2018-05-10T05:00:26.151Z,101.25
2018-05-10T05:01:26.152Z,101.25
2018-05-10T05:02:26.143Z,101.25
2018-05-10T05:03:26.224Z,101.25
2018-05-10T05:04:26.139Z,101.25
2018-05-10T05:05:26.137Z,101.25
2018-05-10T05:06:26.141Z,101.25
2018-05-10T05:07:26.140Z,101.25
2018-05-10T05:08:26.133Z,106.88
2018-05-10T05:09:26.129Z,112.50
2018-05-10T05:10:26.133Z,112.50
2018-05-10T05:11:26.131Z,118.13
2018-05-10T05:12:26.129Z,129.38
2018-05-10T05:13:26.127Z,135.00
2018-05-10T05:14:26.119Z,146.25
2018-05-10T05:15:26.118Z,157.50
2018-05-10T05:16:26.117Z,168.75
2018-05-10T05:17:26.113Z,180.00
2018-05-10T05:18:26.117Z,185.63
2018-05-10T05:19:26.115Z,185.63
2018-05-10T05:20:26.117Z,191.25
2018-05-10T05:21:26.114Z,191.25
2018-05-10T05:22:26.104Z,196.88
2018-05-10T05:23:26.104Z,196.88
2018-05-10T05:24:26.107Z,202.50
2018-05-10T05:25:26.104Z,202.50
2018-05-10T05:26:26.101Z,202.50
2018-05-10T05:27:26.096Z,202.50
2018-05-10T05:28:26.095Z,202.50
2018-05-10T05:29:26.092Z,196.88
2018-05-10T05:30:26.095Z,191.25
2018-05-10T05:31:26.094Z,191.25
2018-05-10T05:32:26.092Z,191.25
2018-05-10T05:33:26.091Z,196.88
2018-05-10T05:34:26.086Z,196.88
2018-05-10T05:35:26.084Z,196.88
2018-05-10T05:36:26.086Z,196.88
2018-05-10T05:37:26.080Z,196.88
2018-05-10T05:38:26.083Z,196.88
2018-05-10T05:39:26.083Z,196.88
2018-05-10T05:40:26.076Z,202.50
2018-05-10T05:41:26.164Z,202.50
2018-05-10T05:42:26.078Z,202.50
2018-05-10T05:43:26.170Z,208.13
2018-05-10T05:44:26.079Z,219.38
2018-05-10T05:45:26.074Z,225.00
2018-05-10T05:46:26.067Z,225.00
2018-05-10T05:47:26.066Z,230.63
2018-05-10T05:48:26.065Z,236.25
2018-05-10T05:49:26.063Z,247.50
2018-05-10T05:50:26.067Z,258.75
2018-05-10T05:51:26.066Z,270.00
2018-05-10T05:52:26.066Z,281.25
2018-05-10T05:53:26.063Z,292.50
2018-05-10T05:54:26.057Z,303.75
2018-05-10T05:55:26.056Z,320.63
2018-05-10T05:56:26.066Z,331.88
2018-05-10T05:57:26.059Z,360.00
2018-05-10T05:58:26.054Z,450.00
2018-05-10T05:59:26.052Z,382.50
2018-05-10T06:00:26.051Z,421.88
2018-05-10T06:01:26.049Z,444.38
2018-05-10T06:02:26.053Z,444.38
2018-05-10T06:03:26.052Z,450.00
2018-05-10T06:04:26.069Z,489.38
2018-05-10T06:05:26.047Z,478.13
2018-05-10T06:06:26.051Z,506.25
2018-05-10T06:07:26.050Z,511.88
2018-05-10T06:08:26.048Z,500.63
2018-05-10T06:09:26.058Z,500.63
2018-05-10T06:10:26.044Z,551.25
2018-05-10T06:11:26.043Z,618.75
2018-05-10T06:12:26.048Z,720.00
2018-05-10T06:13:26.045Z,658.13
2018-05-10T06:14:26.043Z,624.38
2018-05-10T06:15:26.049Z,545.63
2018-05-10T06:16:26.043Z,495.00
2018-05-10T06:17:26.042Z,472.50
2018-05-10T06:18:26.047Z,450.00
2018-05-10T06:19:26.057Z,421.88
2018-05-10T06:20:26.048Z,388.13
2018-05-10T06:21:26.048Z,360.00
2018-05-10T06:22:26.047Z,343.13
2018-05-10T06:23:26.046Z,326.25
2018-05-10T06:24:26.045Z,315.00
2018-05-10T06:25:26.045Z,315.00
2018-05-10T06:26:26.050Z,303.75
2018-05-10T06:27:26.052Z,309.38
2018-05-10T06:28:26.048Z,309.38
2018-05-10T06:29:26.051Z,298.13
2018-05-10T06:30:26.052Z,286.88
2018-05-10T06:31:26.053Z,292.50
2018-05-10T06:32:26.055Z,303.75
2018-05-10T06:33:26.054Z,326.25
2018-05-10T06:34:26.050Z,320.63
2018-05-10T06:35:26.051Z,315.00
2018-05-10T06:36:26.054Z,303.75
2018-05-10T06:37:26.052Z,286.88
2018-05-10T06:38:26.056Z,281.25
2018-05-10T06:39:26.058Z,281.25
2018-05-10T06:40:26.058Z,286.88
2018-05-10T06:41:26.113Z,309.38
2018-05-10T06:42:26.054Z,343.13
2018-05-10T06:43:26.054Z,382.50
2018-05-10T06:44:26.059Z,399.38
2018-05-10T06:45:26.060Z,410.63
2018-05-10T06:46:26.054Z,427.50
2018-05-10T06:47:26.055Z,433.13
2018-05-10T06:48:26.056Z,427.50
2018-05-10T06:49:26.059Z,421.88
2018-05-10T06:50:26.060Z,416.25
2018-05-10T06:51:26.062Z,438.75
2018-05-10T06:52:26.063Z,472.50
2018-05-10T06:53:26.063Z,534.38
2018-05-10T06:54:26.058Z,585.00
2018-05-10T06:55:26.058Z,607.50
2018-05-10T06:56:26.060Z,613.13
2018-05-10T06:57:26.058Z,618.75
2018-05-10T06:58:26.063Z,618.75
2018-05-10T06:59:26.064Z,652.50
2018-05-10T07:00:26.062Z,703.13
2018-05-10T07:01:26.064Z,691.88
2018-05-10T07:02:26.068Z,691.88
2018-05-10T07:03:26.163Z,680.63
2018-05-10T07:04:26.076Z,686.25
2018-05-10T07:05:26.070Z,641.25
2018-05-10T07:06:26.067Z,613.13
2018-05-10T07:07:26.070Z,618.75
2018-05-10T07:08:26.069Z,618.75
2018-05-10T07:09:26.098Z,635.63
2018-05-10T07:10:26.074Z,652.50
2018-05-10T07:11:26.076Z,635.63
2018-05-10T07:12:26.078Z,624.38
2018-05-10T07:13:26.079Z,596.25
2018-05-10T07:14:26.076Z,590.63
2018-05-10T07:15:26.080Z,596.25
2018-05-10T07:16:26.084Z,630.00
2018-05-10T07:17:26.085Z,658.13
2018-05-10T07:18:26.082Z,669.38
2018-05-10T07:19:26.084Z,663.75
2018-05-10T07:20:26.086Z,658.13
2018-05-10T07:21:26.087Z,669.38
2018-05-10T07:22:26.096Z,697.50
2018-05-10T07:23:26.095Z,714.38
2018-05-10T07:24:26.098Z,753.75
2018-05-10T07:25:26.119Z,776.25
2018-05-10T07:26:26.097Z,832.50
2018-05-10T07:27:26.099Z,883.13
2018-05-10T07:28:26.101Z,928.13
2018-05-10T07:29:26.102Z,911.25
2018-05-10T07:30:26.110Z,933.75
2018-05-10T07:31:26.115Z,939.38
2018-05-10T07:32:26.111Z,973.13
2018-05-10T07:33:26.111Z,1046.25
2018-05-10T07:34:26.124Z,1119.38
2018-05-10T07:35:26.120Z,1237.50
2018-05-10T07:36:26.126Z,1344.38
2018-05-10T07:37:26.124Z,1344.38
2018-05-10T07:38:26.123Z,1366.88
2018-05-10T07:39:26.128Z,1327.50
2018-05-10T07:40:26.130Z,1490.63
2018-05-10T07:41:26.132Z,1867.50
2018-05-10T07:42:26.140Z,1530.00
2018-05-10T07:43:26.144Z,1490.63
2018-05-10T07:44:26.149Z,1378.13
2018-05-10T07:45:26.150Z,1541.25
2018-05-10T07:46:26.150Z,1440.00
2018-05-10T07:47:26.223Z,1496.25
2018-05-10T07:48:26.164Z,1530.00
2018-05-10T07:49:26.168Z,1513.13
2018-05-10T07:50:26.168Z,1895.63
2018-05-10T07:51:26.172Z,1738.13
2018-05-10T07:52:26.177Z,2998.13
2018-05-10T07:53:26.182Z,2908.13
2018-05-10T07:54:26.196Z,2806.88
2018-05-10T07:55:26.197Z,3262.50
2018-05-10T07:56:26.201Z,2908.13
2018-05-10T07:57:26.207Z,3082.50
2018-05-10T07:58:26.208Z,2745.00
2018-05-10T07:59:26.215Z,2598.75
2018-05-10T08:00:26.224Z,3015.00
2018-05-10T08:01:26.230Z,3358.13
2018-05-10T08:02:26.239Z,3048.75
2018-05-10T08:03:26.253Z,2823.75
2018-05-10T08:04:26.251Z,1850.63
2018-05-10T08:05:26.258Z,3268.13
2018-05-10T08:06:26.272Z,1749.38
2018-05-10T08:07:26.280Z,1732.50
2018-05-10T08:08:26.289Z,1980.00
2018-05-10T08:09:26.296Z,1996.88
2018-05-10T08:10:26.302Z,1912.50
2018-05-10T08:11:26.313Z,2013.75
2018-05-10T08:12:26.321Z,1473.75
2018-05-10T08:13:26.331Z,1535.63
2018-05-10T08:14:26.346Z,1822.50
2018-05-10T08:15:26.356Z,1771.88
2018-05-10T08:16:26.365Z,2013.75
2018-05-10T08:17:26.375Z,1485.00
2018-05-10T08:18:26.380Z,1479.38
2018-05-10T08:19:26.391Z,1423.13
2018-05-10T08:20:26.404Z,1175.63
2018-05-10T08:21:26.413Z,1046.25
2018-05-10T08:22:26.419Z,1046.25
2018-05-10T08:23:26.429Z,1102.50
2018-05-10T08:24:26.439Z,1417.50
2018-05-10T08:25:26.448Z,1822.50
2018-05-10T08:26:26.463Z,3082.50
2018-05-10T08:27:26.479Z,3127.50
2018-05-10T08:28:26.480Z,3105.00
2018-05-10T08:29:26.490Z,2548.13
2018-05-10T08:30:26.494Z,3358.13
2018-05-10T08:31:26.503Z,3493.13
2018-05-10T08:32:26.512Z,3470.63
2018-05-10T08:33:26.522Z,3026.25
2018-05-10T08:34:26.538Z,1805.63
2018-05-10T08:35:26.547Z,1726.88
2018-05-10T08:36:26.648Z,1912.50
2018-05-10T08:37:26.565Z,2019.38
2018-05-10T08:38:26.579Z,1676.25
2018-05-10T08:39:26.594Z,1749.38
2018-05-10T08:40:26.604Z,1895.63
2018-05-10T08:41:26.614Z,3043.13
2018-05-10T08:42:26.622Z,2317.50
2018-05-10T08:43:26.632Z,2711.25
2018-05-10T08:44:26.644Z,2193.75
2018-05-10T08:45:26.653Z,3510.00
2018-05-10T08:46:26.671Z,3189.38
2018-05-10T08:47:26.683Z,3538.13
2018-05-10T08:48:26.698Z,3515.63
2018-05-10T08:49:26.704Z,3622.50
2018-05-10T08:50:26.715Z,3543.75
2018-05-10T08:51:26.727Z,3690.00
2018-05-10T08:52:26.742Z,3729.38
2018-05-10T08:53:26.755Z,3706.88
2018-05-10T08:54:26.770Z,3729.38
2018-05-10T08:55:26.777Z,3695.63
2018-05-10T08:56:26.792Z,3695.63
2018-05-10T08:57:26.804Z,3712.50
2018-05-10T08:58:26.825Z,3763.13
2018-05-10T08:59:26.839Z,2610.00
2018-05-10T09:00:26.854Z,3526.88
2018-05-10T09:01:26.870Z,3678.75
2018-05-10T09:02:26.884Z,4111.88
2018-05-10T09:03:26.896Z,3436.88
2018-05-10T09:04:26.913Z,4151.25
2018-05-10T09:05:26.926Z,3588.75
2018-05-10T09:06:26.947Z,4145.63
2018-05-10T09:07:27.017Z,4477.50
2018-05-10T09:08:26.977Z,2829.38
2018-05-10T09:09:26.991Z,2334.38
2018-05-10T09:10:27.012Z,2300.63
2018-05-10T09:11:27.030Z,2176.88
2018-05-10T09:12:27.046Z,1850.63
2018-05-10T09:13:27.062Z,1828.13
2018-05-10T09:14:27.074Z,2188.13
2018-05-10T09:15:27.091Z,2694.38
2018-05-10T09:16:27.106Z,2362.50
2018-05-10T09:17:27.120Z,1901.25
2018-05-10T09:18:27.141Z,2086.88
2018-05-10T09:19:27.163Z,2677.50
2018-05-10T09:20:27.173Z,2553.75
2018-05-10T09:21:27.189Z,2441.25
2018-05-10T09:22:27.199Z,2981.25
2018-05-10T09:23:27.216Z,2182.50
2018-05-10T09:24:27.246Z,2508.75
2018-05-10T09:25:27.249Z,3571.88
2018-05-10T09:26:27.262Z,3420.00
2018-05-10T09:27:27.274Z,3588.75
2018-05-10T09:28:27.291Z,3954.38
2018-05-10T09:29:27.304Z,4230.00
2018-05-10T09:30:27.323Z,3740.63
2018-05-10T09:31:27.379Z,3380.63
2018-05-10T09:32:27.357Z,3105.00
2018-05-10T09:33:27.368Z,3324.38
2018-05-10T09:34:27.378Z,3881.25
2018-05-10T09:35:27.395Z,3335.63
2018-05-10T09:36:27.411Z,2795.63
2018-05-10T09:37:27.426Z,3425.63
2018-05-10T09:38:27.447Z,3600.00
2018-05-10T09:39:27.497Z,2430.00
2018-05-10T09:40:27.473Z,2958.75
2018-05-10T09:41:27.489Z,3982.50
2018-05-10T09:42:27.511Z,4016.25
2018-05-10T09:43:27.527Z,2401.88
2018-05-10T09:44:27.542Z,1918.13
2018-05-10T09:45:27.557Z,1957.50
2018-05-10T09:46:27.570Z,2160.00
2018-05-10T09:47:27.586Z,2812.50
2018-05-10T09:48:27.601Z,2812.50
2018-05-10T09:49:27.617Z,3695.63
2018-05-10T09:50:27.638Z,3549.38
2018-05-10T09:51:27.660Z,2520.00
2018-05-10T09:52:27.671Z,2013.75
2018-05-10T09:53:27.684Z,2002.50
2018-05-10T09:54:27.695Z,2958.75
2018-05-10T09:55:27.712Z,2739.38
2018-05-10T09:56:27.731Z,1912.50
2018-05-10T09:57:27.745Z,1890.00
2018-05-10T09:58:27.756Z,2823.75
2018-05-10T09:59:27.771Z,2441.25
2018-05-10T10:00:27.786Z,2497.50
2018-05-10T10:01:27.800Z,3099.38
2018-05-10T10:02:27.819Z,2463.75
2018-05-10T10:03:27.837Z,2272.50
2018-05-10T10:04:27.848Z,1771.88
2018-05-10T10:05:27.862Z,1305.00
2018-05-10T10:06:27.873Z,1170.00
2018-05-10T10:07:27.887Z,1063.13
2018-05-10T10:08:27.901Z,1006.88
2018-05-10T10:09:27.914Z,1001.25
2018-05-10T10:10:27.933Z,1068.75
2018-05-10T10:11:27.949Z,1046.25
2018-05-10T10:12:27.954Z,1035.00
2018-05-10T10:13:27.966Z,1001.25
2018-05-10T10:14:27.984Z,945.00
2018-05-10T10:15:27.997Z,860.63
2018-05-10T10:16:28.009Z,843.75
2018-05-10T10:17:28.018Z,832.50
2018-05-10T10:18:28.026Z,838.13
2018-05-10T10:19:28.037Z,866.25
2018-05-10T10:20:28.047Z,900.00
2018-05-10T10:21:28.057Z,916.88
2018-05-10T10:22:28.071Z,922.50
2018-05-10T10:23:28.082Z,916.88
2018-05-10T10:24:28.094Z,900.00
2018-05-10T10:25:28.100Z,888.75
2018-05-10T10:26:28.107Z,894.38
2018-05-10T10:27:28.154Z,877.50
2018-05-10T10:28:28.132Z,838.13
2018-05-10T10:29:28.136Z,804.38
2018-05-10T10:30:28.140Z,776.25
2018-05-10T10:31:28.148Z,770.63
2018-05-10T10:32:28.197Z,765.00
2018-05-10T10:33:28.163Z,804.38
2018-05-10T10:34:28.182Z,855.00
2018-05-10T10:35:28.183Z,911.25
2018-05-10T10:36:28.191Z,973.13
2018-05-10T10:37:28.203Z,1046.25
2018-05-10T10:38:28.201Z,1018.13
2018-05-10T10:39:28.208Z,1006.88
2018-05-10T10:40:28.216Z,1023.75
2018-05-10T10:41:28.223Z,911.25
2018-05-10T10:42:28.235Z,860.63
2018-05-10T10:43:28.242Z,1096.88
2018-05-10T10:44:28.243Z,945.00
2018-05-10T10:45:28.281Z,877.50
2018-05-10T10:46:28.265Z,793.13
2018-05-10T10:47:28.269Z,708.75
2018-05-10T10:48:28.274Z,630.00
2018-05-10T10:49:28.280Z,607.50
2018-05-10T10:50:28.282Z,528.75
2018-05-10T10:51:28.288Z,438.75
2018-05-10T10:52:28.297Z,427.50
2018-05-10T10:53:28.301Z,421.88
2018-05-10T10:54:28.312Z,478.13
2018-05-10T10:55:28.318Z,450.00
2018-05-10T10:56:28.325Z,472.50
2018-05-10T10:57:28.330Z,489.38
2018-05-10T10:58:28.331Z,433.13
2018-05-10T10:59:28.337Z,348.75
2018-05-10T11:00:28.349Z,337.50
2018-05-10T11:01:28.352Z,365.63
2018-05-10T11:02:28.353Z,343.13
2018-05-10T11:03:28.359Z,309.38
2018-05-10T11:04:28.370Z,270.00
2018-05-10T11:05:28.369Z,236.25
2018-05-10T11:06:28.382Z,230.63
2018-05-10T11:07:28.384Z,219.38
2018-05-10T11:08:28.388Z,191.25
2018-05-10T11:09:28.393Z,174.38
2018-05-10T11:10:28.394Z,191.25
2018-05-10T11:11:28.399Z,213.75
2018-05-10T11:12:28.402Z,219.38
2018-05-10T11:13:28.407Z,219.38
2018-05-10T11:14:28.416Z,208.13
2018-05-10T11:15:28.419Z,208.13
2018-05-10T11:16:28.420Z,208.13
2018-05-10T11:17:28.421Z,230.63
2018-05-10T11:18:28.431Z,281.25
2018-05-10T11:19:28.435Z,303.75
2018-05-10T11:20:28.437Z,315.00
2018-05-10T11:21:28.441Z,298.13
2018-05-10T11:22:28.440Z,264.38
2018-05-10T11:23:28.443Z,247.50
2018-05-10T11:24:28.446Z,236.25
2018-05-10T11:25:28.449Z,236.25
2018-05-10T11:26:28.459Z,225.00
2018-05-10T11:27:28.461Z,230.63
2018-05-10T11:28:28.463Z,230.63
2018-05-10T11:29:28.465Z,225.00
2018-05-10T11:30:28.464Z,213.75
2018-05-10T11:31:28.467Z,191.25
2018-05-10T11:32:28.474Z,180.00
2018-05-10T11:33:28.476Z,196.88
2018-05-10T11:34:28.475Z,219.38
2018-05-10T11:35:28.478Z,230.63
2018-05-10T11:36:28.481Z,219.38
2018-05-10T11:37:28.483Z,236.25
2018-05-10T11:38:28.491Z,241.88
2018-05-10T11:39:28.499Z,253.13
2018-05-10T11:40:28.500Z,286.88
2018-05-10T11:41:28.497Z,275.63
2018-05-10T11:42:28.494Z,241.88
2018-05-10T11:43:28.496Z,213.75
2018-05-10T11:44:28.583Z,258.75
2018-05-10T11:45:28.501Z,264.38
2018-05-10T11:46:28.507Z,247.50
2018-05-10T11:47:28.510Z,236.25
2018-05-10T11:48:28.508Z,236.25
2018-05-10T11:49:28.509Z,236.25
2018-05-10T11:50:28.516Z,270.00
2018-05-10T11:51:28.518Z,281.25
2018-05-10T11:52:28.521Z,298.13
2018-05-10T11:53:28.523Z,303.75
2018-05-10T11:54:28.521Z,281.25
2018-05-10T11:55:28.521Z,315.00
2018-05-10T11:56:28.524Z,326.25
2018-05-10T11:57:28.525Z,348.75
2018-05-10T11:58:28.532Z,399.38
2018-05-10T11:59:28.535Z,427.50
2018-05-10T12:00:28.536Z,405.00
2018-05-10T12:01:28.538Z,455.63
2018-05-10T12:02:28.585Z,444.38
2018-05-10T12:03:28.537Z,382.50
2018-05-10T12:04:28.544Z,320.63
2018-05-10T12:05:28.544Z,292.50
2018-05-10T12:06:28.542Z,298.13
2018-05-10T12:07:28.545Z,309.38
2018-05-10T12:08:28.551Z,309.38
2018-05-10T12:09:28.548Z,303.75
2018-05-10T12:10:28.560Z,275.63
2018-05-10T12:11:28.558Z,298.13
2018-05-10T12:12:28.561Z,303.75
2018-05-10T12:13:28.561Z,286.88
2018-05-10T12:14:28.559Z,286.88
2018-05-10T12:15:28.562Z,275.63
2018-05-10T12:16:28.563Z,270.00
2018-05-10T12:17:28.569Z,286.88
2018-05-10T12:18:28.572Z,292.50
2018-05-10T12:19:28.573Z,253.13
2018-05-10T12:20:28.657Z,241.88
2018-05-10T12:21:28.572Z,253.13
2018-05-10T12:22:28.578Z,258.75
2018-05-10T12:23:28.581Z,292.50
2018-05-10T12:24:28.583Z,292.50
2018-05-10T12:25:28.622Z,258.75
2018-05-10T12:26:28.581Z,241.88
2018-05-10T12:27:28.584Z,236.25
2018-05-10T12:28:28.586Z,236.25
2018-05-10T12:29:28.587Z,219.38
2018-05-10T12:30:28.688Z,225.00
2018-05-10T12:31:28.595Z,230.63
2018-05-10T12:32:28.598Z,253.13
2018-05-10T12:33:28.599Z,270.00
2018-05-10T12:34:28.596Z,264.38
2018-05-10T12:35:28.599Z,247.50
2018-05-10T12:36:28.605Z,241.88
2018-05-10T12:37:28.606Z,241.88
2018-05-10T12:38:28.603Z,247.50
2018-05-10T12:39:28.605Z,253.13